Estación Meteorológica Peña el Pijo (Robertgarden) [ 06/24/19 13:27:41 CEST ]

Fecha Hora Presion(HPa) Temp (°C) Humedad % Rocio (°C) Viento ( m/s) Direccion Lluvia 1Hora(mm) Lluvia 24H(mm) LLuvia Total(mm)
2019-Feb-09 01:01:54 1011.600 -0.5 71 -5.1         183.37
2019-Feb-09 02:03:11 1011.400 -0.5 73 -4.8         183.37
2019-Feb-09 03:01:46 1011.400 -0.8 75 -4.7         183.37
2019-Feb-09 04:01:52 1011.600 -0.8 77 -4.3         183.37
2019-Feb-09 05:01:46 1011.000 -0.7 78 -4.1         183.37
2019-Feb-09 06:01:51 1010.900 -1.1 79 -4.3         183.37
2019-Feb-09 07:01:49 1011.100 -1.3 79 -4.5         183.37
2019-Feb-09 08:01:48 1011.400 -2.2 78 -5.5         183.37
2019-Feb-09 09:01:56 1011.800 -2.7 79 -5.9         183.37
2019-Feb-09 10:01:51 1011.800 5.1 74 0.8         183.37
2019-Feb-09 11:01:53 1012.000 12.8 41 -0.2         183.37
2019-Feb-09 12:01:38 1011.800 16.2 30 -1.4         183.37
2019-Feb-09 13:01:47 1011.400 17.1 24 -3.9         183.37
2019-Feb-09 14:01:41 1010.700 18.7 22 -3.6 2.2 ENE     183.37
2019-Feb-09 15:01:42 1009.900 19.6 22 -2.9         183.37
2019-Feb-09 16:01:51 1009.800 19.5 22 -2.9         183.37
2019-Feb-09 17:01:37 1009.900 17.6 22 -4.5         183.37
2019-Feb-09 18:01:51 1010.100 14.7 28 -3.8         183.37
2019-Feb-09 19:02:01 1010.600 10.9 35 -4.1         183.37
2019-Feb-09 20:01:46 1011.100 6.8 43 -5.0         183.37
2019-Feb-09 21:01:49 1011.500 4.3 49 -5.5         183.37
2019-Feb-09 22:02:00 1011.700 3.3 53 -5.4         183.37
2019-Feb-09 23:01:53 1011.900 2.3 56 -5.6         183.37

Temperatura Máxima:19°    Temperatura Mínima:-2°
Presión Máxima:1012.000 Hpa    Presión Mínima:1009.800 Hpa


Volver